PAED METAR and TAF weather

Enter ICAO airport designator
Station Type Date Time Source
PAED METAR 2019/04/18 10:26 UTC NOAA

PAED 181026Z 33005KT 5SM -SN BR OVC005 01/00 A2939 RMK AO2A CIG 003 RWY06 CIG 003 RWY16 CIG 003 RWY34 SLP950 $


Station Type Date Time Source
PAED Decoded METAR 2019/04/18 10:26 UTC NOAA

Anchorage, Elmendorf Air Force Base, AK, United States (PAED) 61-15-11N 149-47-38W 59M
Apr 18, 2019 - 06:26 AM EDT / 2019.04.18 1026 UTC
Wind: from the NNW (330 degrees) at 6 MPH (5 KT):0
Visibility: 5 mile(s):0
Sky conditions: overcast
Weather: light snow; mist
Temperature: 33 F (1 C)
Windchill: 26 F (-3 C):1
Dew Point: 32 F (0 C)
Relative Humidity: 93%
Pressure (altimeter): 29.39 in. Hg (995 hPa)
ob: PAED 181026Z 33005KT 5SM -SN BR OVC005 01/00 A2939 RMK AO2A CIG 003 RWY06 CIG 003 RWY16 CIG 003 RWY34 SLP950
cycle: 10

Station Type Date Time Source
PAED TAF 2019/04/18 09:45 UTC NOAA

TAF
AMD PAED 180925Z 1809/1909 33005KT 8000 -RA BKN004 OVC060 620049 QNH2934INS
BECMG 1813/1814 VRB06KT 6000 -RASN BKN012 BKN020 620129 QNH2931INS
BECMG 1904/1905 21009KT 3200 -SN BKN006 BKN012 OVC025 620069 QNH2940INS TX01/1809Z TNM03/1815Z

Example: see airport list